sensor_id;sensor_type;location;lat;lon;timestamp;P1;durP1;ratioP1;P2;durP2;ratioP2
43363;SDS011;40636;52.424;-1.948;2023-01-29T00:02:05;3.58;;;2.78;;
43363;SDS011;40636;52.424;-1.948;2023-01-29T00:04:32;4.20;;;2.58;;
43363;SDS011;40636;52.424;-1.948;2023-01-29T00:07:02;5.35;;;2.55;;
43363;SDS011;40636;52.424;-1.948;2023-01-29T00:09:29;4.30;;;2.85;;
43363;SDS011;40636;52.424;-1.948;2023-01-29T00:11:57;7.78;;;2.53;;
43363;SDS011;40636;52.424;-1.948;2023-01-29T00:14:23;4.72;;;3.05;;
43363;SDS011;40636;52.424;-1.948;2023-01-29T00:16:52;2.85;;;2.47;;
43363;SDS011;40636;52.424;-1.948;2023-01-29T00:19:19;4.80;;;2.70;;
43363;SDS011;40636;52.424;-1.948;2023-01-29T00:21:46;6.57;;;3.72;;
43363;SDS011;40636;52.424;-1.948;2023-01-29T00:24:12;2.95;;;2.63;;
43363;SDS011;40636;52.424;-1.948;2023-01-29T00:26:39;8.23;;;3.17;;
43363;SDS011;40636;52.424;-1.948;2023-01-29T00:29:07;4.70;;;2.65;;
43363;SDS011;40636;52.424;-1.948;2023-01-29T00:31:34;4.40;;;2.47;;
43363;SDS011;40636;52.424;-1.948;2023-01-29T00:34:01;5.45;;;2.92;;
43363;SDS011;40636;52.424;-1.948;2023-01-29T00:36:29;3.00;;;2.30;;
43363;SDS011;40636;52.424;-1.948;2023-01-29T00:38:56;4.07;;;2.75;;
43363;SDS011;40636;52.424;-1.948;2023-01-29T00:41:26;7.90;;;3.10;;
43363;SDS011;40636;52.424;-1.948;2023-01-29T00:44:14;5.80;;;2.88;;
43363;SDS011;40636;52.424;-1.948;2023-01-29T00:47:10;3.50;;;2.75;;
43363;SDS011;40636;52.424;-1.948;2023-01-29T00:49:56;4.18;;;2.83;;
43363;SDS011;40636;52.424;-1.948;2023-01-29T00:52:23;5.82;;;3.53;;
43363;SDS011;40636;52.424;-1.948;2023-01-29T00:54:53;7.47;;;2.30;;
43363;SDS011;40636;52.424;-1.948;2023-01-29T00:57:24;6.38;;;3.38;;
43363;SDS011;40636;52.424;-1.948;2023-01-29T00:59:52;4.30;;;3.03;;
43363;SDS011;40636;52.424;-1.948;2023-01-29T01:02:19;4.90;;;2.72;;
43363;SDS011;40636;52.424;-1.948;2023-01-29T01:05:05;8.25;;;2.95;;
43363;SDS011;40636;52.424;-1.948;2023-01-29T01:07:35;4.13;;;3.10;;
43363;SDS011;40636;52.424;-1.948;2023-01-29T01:10:02;6.03;;;3.10;;
43363;SDS011;40636;52.424;-1.948;2023-01-29T01:12:50;4.70;;;2.60;;
43363;SDS011;40636;52.424;-1.948;2023-01-29T01:15:19;8.73;;;2.95;;
43363;SDS011;40636;52.424;-1.948;2023-01-29T01:17:46;5.18;;;3.00;;
43363;SDS011;40636;52.424;-1.948;2023-01-29T01:20:14;7.93;;;3.17;;
43363;SDS011;40636;52.424;-1.948;2023-01-29T01:22:41;6.22;;;2.92;;
43363;SDS011;40636;52.424;-1.948;2023-01-29T01:25:08;4.28;;;2.67;;
43363;SDS011;40636;52.424;-1.948;2023-01-29T01:27:35;4.50;;;2.75;;
43363;SDS011;40636;52.424;-1.948;2023-01-29T01:30:10;8.27;;;2.80;;
43363;SDS011;40636;52.424;-1.948;2023-01-29T01:32:40;5.80;;;2.60;;
43363;SDS011;40636;52.424;-1.948;2023-01-29T01:35:09;6.97;;;2.58;;
43363;SDS011;40636;52.424;-1.948;2023-01-29T01:37:37;6.90;;;2.60;;
43363;SDS011;40636;52.424;-1.948;2023-01-29T01:40:05;6.75;;;3.22;;
43363;SDS011;40636;52.424;-1.948;2023-01-29T01:42:46;4.00;;;3.08;;
43363;SDS011;40636;52.424;-1.948;2023-01-29T01:45:18;5.70;;;2.78;;
43363;SDS011;40636;52.424;-1.948;2023-01-29T01:47:46;4.97;;;3.05;;
43363;SDS011;40636;52.424;-1.948;2023-01-29T01:50:17;4.47;;;3.47;;
43363;SDS011;40636;52.424;-1.948;2023-01-29T01:52:54;3.83;;;2.70;;
43363;SDS011;40636;52.424;-1.948;2023-01-29T01:55:25;8.02;;;3.97;;
43363;SDS011;40636;52.424;-1.948;2023-01-29T01:57:56;4.88;;;3.45;;
43363;SDS011;40636;52.424;-1.948;2023-01-29T02:00:34;7.28;;;3.60;;
43363;SDS011;40636;52.424;-1.948;2023-01-29T02:03:00;5.10;;;3.42;;
43363;SDS011;40636;52.424;-1.948;2023-01-29T02:05:46;6.03;;;3.38;;
43363;SDS011;40636;52.424;-1.948;2023-01-29T02:08:42;5.97;;;2.75;;
43363;SDS011;40636;52.424;-1.948;2023-01-29T02:11:34;3.28;;;2.95;;
43363;SDS011;40636;52.424;-1.948;2023-01-29T02:14:01;7.05;;;3.47;;
43363;SDS011;40636;52.424;-1.948;2023-01-29T02:16:28;6.50;;;3.75;;
43363;SDS011;40636;52.424;-1.948;2023-01-29T02:18:55;7.32;;;3.00;;
43363;SDS011;40636;52.424;-1.948;2023-01-29T02:22:05;5.63;;;3.40;;
43363;SDS011;40636;52.424;-1.948;2023-01-29T02:27:07;6.85;;;3.60;;
43363;SDS011;40636;52.424;-1.948;2023-01-29T02:29:38;7.63;;;3.92;;
43363;SDS011;40636;52.424;-1.948;2023-01-29T02:32:26;4.88;;;3.85;;
43363;SDS011;40636;52.424;-1.948;2023-01-29T02:35:04;6.28;;;3.92;;
43363;SDS011;40636;52.424;-1.948;2023-01-29T02:40:28;5.75;;;3.72;;
43363;SDS011;40636;52.424;-1.948;2023-01-29T02:45:47;7.45;;;4.05;;
43363;SDS011;40636;52.424;-1.948;2023-01-29T02:48:40;7.45;;;3.92;;
43363;SDS011;40636;52.424;-1.948;2023-01-29T02:51:31;5.75;;;3.83;;
43363;SDS011;40636;52.424;-1.948;2023-01-29T02:56:51;6.65;;;3.80;;
43363;SDS011;40636;52.424;-1.948;2023-01-29T02:59:22;7.57;;;3.88;;
43363;SDS011;40636;52.424;-1.948;2023-01-29T03:01:55;4.47;;;3.22;;
43363;SDS011;40636;52.424;-1.948;2023-01-29T03:04:44;6.30;;;3.85;;
43363;SDS011;40636;52.424;-1.948;2023-01-29T03:07:17;5.65;;;3.60;;
43363;SDS011;40636;52.424;-1.948;2023-01-29T03:12:45;4.90;;;3.05;;
43363;SDS011;40636;52.424;-1.948;2023-01-29T03:15:25;8.65;;;4.38;;
43363;SDS011;40636;52.424;-1.948;2023-01-29T03:18:18;9.27;;;3.72;;
43363;SDS011;40636;52.424;-1.948;2023-01-29T03:20:48;5.47;;;3.78;;
43363;SDS011;40636;52.424;-1.948;2023-01-29T03:23:20;6.05;;;3.60;;
43363;SDS011;40636;52.424;-1.948;2023-01-29T03:25:53;7.45;;;3.33;;
43363;SDS011;40636;52.424;-1.948;2023-01-29T03:28:43;7.57;;;3.33;;
43363;SDS011;40636;52.424;-1.948;2023-01-29T03:34:18;5.50;;;3.50;;
43363;SDS011;40636;52.424;-1.948;2023-01-29T03:36:54;5.75;;;3.70;;
43363;SDS011;40636;52.424;-1.948;2023-01-29T03:39:27;6.43;;;3.80;;
43363;SDS011;40636;52.424;-1.948;2023-01-29T03:42:03;6.22;;;3.80;;
43363;SDS011;40636;52.424;-1.948;2023-01-29T03:44:58;8.88;;;3.72;;
43363;SDS011;40636;52.424;-1.948;2023-01-29T03:51:04;6.97;;;4.05;;
43363;SDS011;40636;52.424;-1.948;2023-01-29T03:58:58;9.30;;;4.35;;
43363;SDS011;40636;52.424;-1.948;2023-01-29T04:04:06;7.85;;;3.92;;
43363;SDS011;40636;52.424;-1.948;2023-01-29T04:06:40;7.43;;;3.70;;
43363;SDS011;40636;52.424;-1.948;2023-01-29T04:09:12;10.52;;;3.95;;
43363;SDS011;40636;52.424;-1.948;2023-01-29T04:11:48;7.03;;;4.15;;
43363;SDS011;40636;52.424;-1.948;2023-01-29T04:14:29;6.45;;;4.18;;
43363;SDS011;40636;52.424;-1.948;2023-01-29T04:16:59;7.55;;;3.78;;
43363;SDS011;40636;52.424;-1.948;2023-01-29T04:19:28;6.28;;;4.32;;
43363;SDS011;40636;52.424;-1.948;2023-01-29T04:22:38;7.13;;;3.80;;
43363;SDS011;40636;52.424;-1.948;2023-01-29T04:24:50;7.35;;;4.25;;
43363;SDS011;40636;52.424;-1.948;2023-01-29T04:27:22;6.30;;;4.25;;
43363;SDS011;40636;52.424;-1.948;2023-01-29T04:30:01;8.15;;;4.18;;
43363;SDS011;40636;52.424;-1.948;2023-01-29T04:32:49;6.07;;;4.07;;
43363;SDS011;40636;52.424;-1.948;2023-01-29T04:38:40;5.72;;;3.67;;
43363;SDS011;40636;52.424;-1.948;2023-01-29T04:44:22;7.38;;;4.07;;
43363;SDS011;40636;52.424;-1.948;2023-01-29T04:49:55;5.63;;;3.35;;
43363;SDS011;40636;52.424;-1.948;2023-01-29T04:52:43;8.02;;;4.13;;
43363;SDS011;40636;52.424;-1.948;2023-01-29T04:55:28;7.03;;;4.00;;
43363;SDS011;40636;52.424;-1.948;2023-01-29T05:00:51;9.63;;;5.00;;
43363;SDS011;40636;52.424;-1.948;2023-01-29T05:03:20;8.50;;;4.15;;
43363;SDS011;40636;52.424;-1.948;2023-01-29T05:05:51;7.55;;;3.75;;
43363;SDS011;40636;52.424;-1.948;2023-01-29T05:08:21;7.40;;;4.25;;
43363;SDS011;40636;52.424;-1.948;2023-01-29T05:10:51;8.90;;;3.78;;
43363;SDS011;40636;52.424;-1.948;2023-01-29T05:13:20;6.72;;;3.58;;
43363;SDS011;40636;52.424;-1.948;2023-01-29T05:18:30;7.72;;;3.33;;
43363;SDS011;40636;52.424;-1.948;2023-01-29T05:20:57;6.40;;;3.47;;
43363;SDS011;40636;52.424;-1.948;2023-01-29T05:23:29;5.80;;;4.13;;
43363;SDS011;40636;52.424;-1.948;2023-01-29T05:25:56;5.72;;;3.15;;
43363;SDS011;40636;52.424;-1.948;2023-01-29T05:28:23;3.75;;;2.95;;
43363;SDS011;40636;52.424;-1.948;2023-01-29T05:30:50;4.78;;;3.22;;
43363;SDS011;40636;52.424;-1.948;2023-01-29T05:33:21;5.75;;;3.60;;
43363;SDS011;40636;52.424;-1.948;2023-01-29T05:35:48;4.40;;;3.03;;
43363;SDS011;40636;52.424;-1.948;2023-01-29T05:38:17;7.20;;;3.58;;
43363;SDS011;40636;52.424;-1.948;2023-01-29T05:40:44;5.75;;;4.13;;
43363;SDS011;40636;52.424;-1.948;2023-01-29T05:43:13;4.95;;;3.33;;
43363;SDS011;40636;52.424;-1.948;2023-01-29T05:45:54;5.88;;;3.17;;
43363;SDS011;40636;52.424;-1.948;2023-01-29T05:48:26;7.95;;;2.95;;
43363;SDS011;40636;52.424;-1.948;2023-01-29T05:50:58;4.72;;;3.25;;
43363;SDS011;40636;52.424;-1.948;2023-01-29T05:53:30;4.82;;;3.20;;
43363;SDS011;40636;52.424;-1.948;2023-01-29T05:55:59;4.72;;;3.42;;
43363;SDS011;40636;52.424;-1.948;2023-01-29T05:58:28;7.65;;;3.65;;
43363;SDS011;40636;52.424;-1.948;2023-01-29T06:01:07;5.85;;;3.53;;
43363;SDS011;40636;52.424;-1.948;2023-01-29T06:03:37;6.03;;;3.85;;
43363;SDS011;40636;52.424;-1.948;2023-01-29T06:06:05;4.97;;;2.90;;
43363;SDS011;40636;52.424;-1.948;2023-01-29T06:08:31;5.78;;;3.25;;
43363;SDS011;40636;52.424;-1.948;2023-01-29T06:10:58;5.80;;;3.25;;
43363;SDS011;40636;52.424;-1.948;2023-01-29T06:13:25;5.22;;;3.25;;
43363;SDS011;40636;52.424;-1.948;2023-01-29T06:15:52;5.43;;;3.63;;
43363;SDS011;40636;52.424;-1.948;2023-01-29T06:18:18;5.30;;;3.22;;
43363;SDS011;40636;52.424;-1.948;2023-01-29T06:20:45;5.63;;;4.00;;
43363;SDS011;40636;52.424;-1.948;2023-01-29T06:23:12;6.18;;;3.45;;
43363;SDS011;40636;52.424;-1.948;2023-01-29T06:25:38;4.72;;;3.00;;
43363;SDS011;40636;52.424;-1.948;2023-01-29T06:28:05;5.03;;;3.22;;
43363;SDS011;40636;52.424;-1.948;2023-01-29T06:30:32;4.97;;;3.35;;
43363;SDS011;40636;52.424;-1.948;2023-01-29T06:32:59;6.72;;;3.42;;
43363;SDS011;40636;52.424;-1.948;2023-01-29T06:35:31;5.25;;;3.35;;
43363;SDS011;40636;52.424;-1.948;2023-01-29T06:37:59;5.63;;;4.00;;
43363;SDS011;40636;52.424;-1.948;2023-01-29T06:40:26;8.13;;;4.10;;
43363;SDS011;40636;52.424;-1.948;2023-01-29T06:42:52;4.75;;;3.35;;
43363;SDS011;40636;52.424;-1.948;2023-01-29T06:45:19;6.25;;;4.68;;
43363;SDS011;40636;52.424;-1.948;2023-01-29T06:47:46;5.80;;;3.75;;
43363;SDS011;40636;52.424;-1.948;2023-01-29T06:50:12;7.25;;;4.18;;
43363;SDS011;40636;52.424;-1.948;2023-01-29T06:52:39;7.60;;;4.20;;
43363;SDS011;40636;52.424;-1.948;2023-01-29T06:55:06;8.02;;;4.75;;
43363;SDS011;40636;52.424;-1.948;2023-01-29T06:57:33;8.23;;;4.78;;
43363;SDS011;40636;52.424;-1.948;2023-01-29T07:00:00;8.68;;;4.20;;
43363;SDS011;40636;52.424;-1.948;2023-01-29T07:02:27;6.53;;;4.40;;
43363;SDS011;40636;52.424;-1.948;2023-01-29T07:04:53;6.35;;;4.13;;
43363;SDS011;40636;52.424;-1.948;2023-01-29T07:07:20;8.05;;;4.50;;
43363;SDS011;40636;52.424;-1.948;2023-01-29T07:09:48;7.70;;;3.88;;
43363;SDS011;40636;52.424;-1.948;2023-01-29T07:12:14;5.22;;;3.35;;
43363;SDS011;40636;52.424;-1.948;2023-01-29T07:14:41;6.63;;;3.78;;
43363;SDS011;40636;52.424;-1.948;2023-01-29T07:17:08;5.13;;;3.80;;
43363;SDS011;40636;52.424;-1.948;2023-01-29T07:19:34;5.57;;;3.70;;
43363;SDS011;40636;52.424;-1.948;2023-01-29T07:22:01;5.10;;;3.72;;
43363;SDS011;40636;52.424;-1.948;2023-01-29T07:24:29;7.65;;;4.00;;
43363;SDS011;40636;52.424;-1.948;2023-01-29T07:26:55;5.18;;;3.08;;
43363;SDS011;40636;52.424;-1.948;2023-01-29T07:29:22;8.55;;;3.80;;
43363;SDS011;40636;52.424;-1.948;2023-01-29T07:31:50;5.97;;;3.78;;
43363;SDS011;40636;52.424;-1.948;2023-01-29T07:34:17;5.65;;;3.40;;
43363;SDS011;40636;52.424;-1.948;2023-01-29T07:36:43;5.72;;;3.60;;
43363;SDS011;40636;52.424;-1.948;2023-01-29T07:39:10;8.32;;;4.60;;
43363;SDS011;40636;52.424;-1.948;2023-01-29T07:41:37;7.47;;;4.18;;
43363;SDS011;40636;52.424;-1.948;2023-01-29T07:44:03;6.60;;;3.92;;
43363;SDS011;40636;52.424;-1.948;2023-01-29T07:46:30;8.27;;;4.63;;
43363;SDS011;40636;52.424;-1.948;2023-01-29T07:48:57;7.80;;;4.90;;
43363;SDS011;40636;52.424;-1.948;2023-01-29T07:51:24;6.78;;;5.18;;
43363;SDS011;40636;52.424;-1.948;2023-01-29T07:53:51;8.13;;;4.82;;
43363;SDS011;40636;52.424;-1.948;2023-01-29T07:56:18;9.25;;;4.65;;
43363;SDS011;40636;52.424;-1.948;2023-01-29T07:58:45;8.82;;;4.55;;
43363;SDS011;40636;52.424;-1.948;2023-01-29T08:01:12;12.15;;;5.90;;
43363;SDS011;40636;52.424;-1.948;2023-01-29T08:03:40;9.60;;;5.45;;
43363;SDS011;40636;52.424;-1.948;2023-01-29T08:06:07;8.27;;;4.35;;
43363;SDS011;40636;52.424;-1.948;2023-01-29T08:08:33;11.05;;;5.13;;
43363;SDS011;40636;52.424;-1.948;2023-01-29T08:11:01;7.28;;;4.65;;
43363;SDS011;40636;52.424;-1.948;2023-01-29T08:13:29;6.90;;;4.32;;
43363;SDS011;40636;52.424;-1.948;2023-01-29T08:15:59;7.72;;;4.20;;
43363;SDS011;40636;52.424;-1.948;2023-01-29T08:18:26;6.07;;;3.67;;
43363;SDS011;40636;52.424;-1.948;2023-01-29T08:20:57;7.05;;;4.68;;
43363;SDS011;40636;52.424;-1.948;2023-01-29T08:23:25;7.15;;;4.35;;
43363;SDS011;40636;52.424;-1.948;2023-01-29T08:25:52;7.85;;;4.45;;
43363;SDS011;40636;52.424;-1.948;2023-01-29T08:28:18;6.25;;;4.60;;
43363;SDS011;40636;52.424;-1.948;2023-01-29T08:30:45;9.45;;;3.90;;
43363;SDS011;40636;52.424;-1.948;2023-01-29T08:33:12;7.18;;;4.13;;
43363;SDS011;40636;52.424;-1.948;2023-01-29T08:35:41;5.65;;;3.40;;
43363;SDS011;40636;52.424;-1.948;2023-01-29T08:38:08;6.63;;;3.75;;
43363;SDS011;40636;52.424;-1.948;2023-01-29T08:40:34;9.07;;;4.15;;
43363;SDS011;40636;52.424;-1.948;2023-01-29T08:43:02;8.73;;;5.43;;
43363;SDS011;40636;52.424;-1.948;2023-01-29T08:45:33;7.60;;;5.35;;
43363;SDS011;40636;52.424;-1.948;2023-01-29T08:48:02;7.32;;;4.32;;
43363;SDS011;40636;52.424;-1.948;2023-01-29T08:50:29;8.15;;;4.75;;
43363;SDS011;40636;52.424;-1.948;2023-01-29T08:52:57;10.52;;;5.47;;
43363;SDS011;40636;52.424;-1.948;2023-01-29T08:55:25;12.32;;;5.15;;
43363;SDS011;40636;52.424;-1.948;2023-01-29T08:57:52;8.55;;;5.13;;
43363;SDS011;40636;52.424;-1.948;2023-01-29T09:00:19;9.65;;;6.03;;
43363;SDS011;40636;52.424;-1.948;2023-01-29T09:02:46;8.55;;;6.32;;
43363;SDS011;40636;52.424;-1.948;2023-01-29T09:05:13;11.13;;;5.55;;
43363;SDS011;40636;52.424;-1.948;2023-01-29T09:07:41;10.80;;;5.55;;
43363;SDS011;40636;52.424;-1.948;2023-01-29T09:10:07;6.70;;;5.25;;
43363;SDS011;40636;52.424;-1.948;2023-01-29T09:12:35;9.55;;;5.25;;
43363;SDS011;40636;52.424;-1.948;2023-01-29T09:15:01;9.48;;;5.65;;
43363;SDS011;40636;52.424;-1.948;2023-01-29T09:17:28;8.93;;;5.57;;
43363;SDS011;40636;52.424;-1.948;2023-01-29T09:19:54;11.13;;;5.70;;
43363;SDS011;40636;52.424;-1.948;2023-01-29T09:22:21;12.45;;;6.35;;
43363;SDS011;40636;52.424;-1.948;2023-01-29T09:24:48;7.68;;;5.15;;
43363;SDS011;40636;52.424;-1.948;2023-01-29T09:27:14;13.52;;;6.53;;
43363;SDS011;40636;52.424;-1.948;2023-01-29T09:29:41;10.60;;;5.32;;
43363;SDS011;40636;52.424;-1.948;2023-01-29T09:32:08;11.38;;;6.13;;
43363;SDS011;40636;52.424;-1.948;2023-01-29T09:34:35;8.50;;;5.50;;
43363;SDS011;40636;52.424;-1.948;2023-01-29T09:37:02;9.93;;;5.60;;
43363;SDS011;40636;52.424;-1.948;2023-01-29T09:39:29;8.05;;;5.05;;
43363;SDS011;40636;52.424;-1.948;2023-01-29T09:42:11;9.27;;;5.57;;
43363;SDS011;40636;52.424;-1.948;2023-01-29T09:44:45;10.02;;;6.13;;
43363;SDS011;40636;52.424;-1.948;2023-01-29T09:47:18;9.45;;;5.22;;
43363;SDS011;40636;52.424;-1.948;2023-01-29T09:49:51;12.15;;;6.82;;
43363;SDS011;40636;52.424;-1.948;2023-01-29T09:52:24;7.60;;;4.82;;
43363;SDS011;40636;52.424;-1.948;2023-01-29T09:57:42;11.85;;;6.38;;
43363;SDS011;40636;52.424;-1.948;2023-01-29T10:01:01;7.60;;;4.82;;
43363;SDS011;40636;52.424;-1.948;2023-01-29T10:13:55;5.22;;;3.17;;
43363;SDS011;40636;52.424;-1.948;2023-01-29T10:27:21;4.32;;;2.60;;
43363;SDS011;40636;52.424;-1.948;2023-01-29T10:29:49;2.88;;;2.17;;
43363;SDS011;40636;52.424;-1.948;2023-01-29T10:32:19;6.10;;;3.45;;
43363;SDS011;40636;52.424;-1.948;2023-01-29T10:34:51;3.33;;;2.60;;
43363;SDS011;40636;52.424;-1.948;2023-01-29T10:37:39;3.17;;;2.45;;
43363;SDS011;40636;52.424;-1.948;2023-01-29T10:40:20;4.60;;;2.80;;
43363;SDS011;40636;52.424;-1.948;2023-01-29T10:46:29;4.28;;;2.72;;
43363;SDS011;40636;52.424;-1.948;2023-01-29T10:51:56;4.07;;;2.40;;
43363;SDS011;40636;52.424;-1.948;2023-01-29T11:00:32;5.03;;;3.33;;
43363;SDS011;40636;52.424;-1.948;2023-01-29T11:03:11;5.55;;;3.50;;
43363;SDS011;40636;52.424;-1.948;2023-01-29T11:09:04;4.13;;;2.55;;
43363;SDS011;40636;52.424;-1.948;2023-01-29T11:17:15;2.80;;;2.05;;
43363;SDS011;40636;52.424;-1.948;2023-01-29T11:19:44;3.33;;;2.33;;
43363;SDS011;40636;52.424;-1.948;2023-01-29T11:22:13;3.75;;;2.03;;
43363;SDS011;40636;52.424;-1.948;2023-01-29T11:24:42;3.25;;;2.20;;
43363;SDS011;40636;52.424;-1.948;2023-01-29T11:27:22;3.85;;;2.35;;
43363;SDS011;40636;52.424;-1.948;2023-01-29T11:29:52;2.42;;;1.60;;
43363;SDS011;40636;52.424;-1.948;2023-01-29T11:37:34;1.58;;;1.30;;
43363;SDS011;40636;52.424;-1.948;2023-01-29T11:42:47;2.00;;;1.48;;
43363;SDS011;40636;52.424;-1.948;2023-01-29T11:45:27;2.35;;;1.80;;
43363;SDS011;40636;52.424;-1.948;2023-01-29T11:47:57;3.05;;;1.88;;
43363;SDS011;40636;52.424;-1.948;2023-01-29T11:50:26;2.55;;;1.65;;
43363;SDS011;40636;52.424;-1.948;2023-01-29T11:52:55;1.98;;;1.35;;
43363;SDS011;40636;52.424;-1.948;2023-01-29T11:55:25;2.58;;;2.00;;
43363;SDS011;40636;52.424;-1.948;2023-01-29T11:58:14;2.55;;;1.55;;
43363;SDS011;40636;52.424;-1.948;2023-01-29T12:00:46;2.95;;;1.42;;
43363;SDS011;40636;52.424;-1.948;2023-01-29T12:05:58;2.20;;;1.40;;
43363;SDS011;40636;52.424;-1.948;2023-01-29T12:08:32;1.67;;;1.20;;
43363;SDS011;40636;52.424;-1.948;2023-01-29T12:11:45;2.20;;;1.42;;
43363;SDS011;40636;52.424;-1.948;2023-01-29T12:14:03;2.63;;;1.70;;
43363;SDS011;40636;52.424;-1.948;2023-01-29T12:19:48;3.25;;;2.25;;
43363;SDS011;40636;52.424;-1.948;2023-01-29T12:22:43;2.78;;;1.75;;
43363;SDS011;40636;52.424;-1.948;2023-01-29T12:25:37;2.88;;;2.33;;
43363;SDS011;40636;52.424;-1.948;2023-01-29T12:31:00;2.90;;;2.20;;
43363;SDS011;40636;52.424;-1.948;2023-01-29T12:33:42;3.95;;;2.40;;
43363;SDS011;40636;52.424;-1.948;2023-01-29T12:36:25;4.93;;;2.17;;
43363;SDS011;40636;52.424;-1.948;2023-01-29T12:38:55;3.47;;;2.05;;
43363;SDS011;40636;52.424;-1.948;2023-01-29T12:41:28;3.42;;;2.20;;
43363;SDS011;40636;52.424;-1.948;2023-01-29T12:46:55;5.93;;;2.88;;
43363;SDS011;40636;52.424;-1.948;2023-01-29T12:49:29;5.30;;;2.55;;
43363;SDS011;40636;52.424;-1.948;2023-01-29T12:52:08;3.10;;;1.88;;
43363;SDS011;40636;52.424;-1.948;2023-01-29T12:57:55;2.45;;;1.17;;
43363;SDS011;40636;52.424;-1.948;2023-01-29T13:00:28;1.67;;;1.10;;
43363;SDS011;40636;52.424;-1.948;2023-01-29T13:05:47;0.65;;;0.63;;
43363;SDS011;40636;52.424;-1.948;2023-01-29T13:08:18;1.77;;;0.80;;
43363;SDS011;40636;52.424;-1.948;2023-01-29T13:10:50;1.65;;;0.80;;
43363;SDS011;40636;52.424;-1.948;2023-01-29T13:16:46;0.60;;;0.60;;
43363;SDS011;40636;52.424;-1.948;2023-01-29T13:19:37;0.60;;;0.60;;
43363;SDS011;40636;52.424;-1.948;2023-01-29T13:22:13;1.55;;;0.75;;
43363;SDS011;40636;52.424;-1.948;2023-01-29T13:24:59;0.50;;;0.50;;
43363;SDS011;40636;52.424;-1.948;2023-01-29T13:27:32;0.40;;;0.40;;
43363;SDS011;40636;52.424;-1.948;2023-01-29T13:30:00;0.70;;;0.70;;
43363;SDS011;40636;52.424;-1.948;2023-01-29T13:32:28;0.88;;;0.50;;
43363;SDS011;40636;52.424;-1.948;2023-01-29T13:35:04;0.63;;;0.55;;
43363;SDS011;40636;52.424;-1.948;2023-01-29T13:37:40;1.02;;;1.02;;
43363;SDS011;40636;52.424;-1.948;2023-01-29T13:40:21;0.63;;;0.57;;
43363;SDS011;40636;52.424;-1.948;2023-01-29T13:42:51;1.15;;;0.80;;
43363;SDS011;40636;52.424;-1.948;2023-01-29T13:45:23;0.47;;;0.47;;
43363;SDS011;40636;52.424;-1.948;2023-01-29T13:47:54;0.77;;;0.70;;
43363;SDS011;40636;52.424;-1.948;2023-01-29T13:50:43;0.70;;;0.70;;
43363;SDS011;40636;52.424;-1.948;2023-01-29T13:53:22;0.82;;;0.80;;
43363;SDS011;40636;52.424;-1.948;2023-01-29T13:55:52;0.85;;;0.60;;
43363;SDS011;40636;52.424;-1.948;2023-01-29T14:00:58;0.40;;;0.40;;
43363;SDS011;40636;52.424;-1.948;2023-01-29T14:06:03;0.85;;;0.63;;
43363;SDS011;40636;52.424;-1.948;2023-01-29T14:13:38;0.90;;;0.63;;
43363;SDS011;40636;52.424;-1.948;2023-01-29T14:19:14;1.23;;;0.80;;
43363;SDS011;40636;52.424;-1.948;2023-01-29T14:21:41;3.05;;;0.73;;
43363;SDS011;40636;52.424;-1.948;2023-01-29T14:24:16;0.50;;;0.50;;
43363;SDS011;40636;52.424;-1.948;2023-01-29T14:26:47;0.75;;;0.65;;
43363;SDS011;40636;52.424;-1.948;2023-01-29T14:29:26;1.27;;;0.70;;
43363;SDS011;40636;52.424;-1.948;2023-01-29T14:37:29;0.73;;;0.73;;
43363;SDS011;40636;52.424;-1.948;2023-01-29T14:42:38;1.42;;;0.85;;
43363;SDS011;40636;52.424;-1.948;2023-01-29T14:45:23;0.77;;;0.70;;
43363;SDS011;40636;52.424;-1.948;2023-01-29T14:47:55;0.75;;;0.65;;
43363;SDS011;40636;52.424;-1.948;2023-01-29T14:52:59;0.50;;;0.50;;
43363;SDS011;40636;52.424;-1.948;2023-01-29T14:55:40;0.73;;;0.68;;
43363;SDS011;40636;52.424;-1.948;2023-01-29T14:58:18;1.15;;;0.75;;
43363;SDS011;40636;52.424;-1.948;2023-01-29T15:00:53;0.60;;;0.60;;
43363;SDS011;40636;52.424;-1.948;2023-01-29T15:06:02;0.65;;;0.52;;
43363;SDS011;40636;52.424;-1.948;2023-01-29T15:08:34;2.88;;;0.60;;
43363;SDS011;40636;52.424;-1.948;2023-01-29T15:11:06;1.23;;;0.80;;
43363;SDS011;40636;52.424;-1.948;2023-01-29T15:14:05;0.50;;;0.50;;
43363;SDS011;40636;52.424;-1.948;2023-01-29T15:19:23;0.68;;;0.60;;
43363;SDS011;40636;52.424;-1.948;2023-01-29T15:22:28;0.60;;;0.60;;
43363;SDS011;40636;52.424;-1.948;2023-01-29T15:28:03;1.30;;;0.47;;
43363;SDS011;40636;52.424;-1.948;2023-01-29T15:30:35;1.58;;;0.70;;
43363;SDS011;40636;52.424;-1.948;2023-01-29T15:33:03;0.50;;;0.50;;
43363;SDS011;40636;52.424;-1.948;2023-01-29T15:38:05;0.43;;;0.43;;
43363;SDS011;40636;52.424;-1.948;2023-01-29T15:40:32;2.53;;;0.80;;
43363;SDS011;40636;52.424;-1.948;2023-01-29T15:42:59;1.17;;;0.80;;
43363;SDS011;40636;52.424;-1.948;2023-01-29T15:45:27;0.68;;;0.68;;
43363;SDS011;40636;52.424;-1.948;2023-01-29T15:48:11;1.42;;;0.95;;
43363;SDS011;40636;52.424;-1.948;2023-01-29T15:50:42;2.28;;;0.60;;
43363;SDS011;40636;52.424;-1.948;2023-01-29T15:53:14;1.17;;;0.75;;
43363;SDS011;40636;52.424;-1.948;2023-01-29T15:55:45;1.17;;;0.90;;
43363;SDS011;40636;52.424;-1.948;2023-01-29T15:58:17;1.23;;;0.70;;
43363;SDS011;40636;52.424;-1.948;2023-01-29T16:00:52;1.23;;;0.90;;
43363;SDS011;40636;52.424;-1.948;2023-01-29T16:03:21;0.57;;;0.57;;
43363;SDS011;40636;52.424;-1.948;2023-01-29T16:05:50;1.88;;;0.80;;
43363;SDS011;40636;52.424;-1.948;2023-01-29T16:08:18;3.05;;;0.77;;
43363;SDS011;40636;52.424;-1.948;2023-01-29T16:10:47;0.52;;;0.50;;
43363;SDS011;40636;52.424;-1.948;2023-01-29T16:13:40;0.93;;;0.88;;
43363;SDS011;40636;52.424;-1.948;2023-01-29T16:16:18;0.90;;;0.70;;
43363;SDS011;40636;52.424;-1.948;2023-01-29T16:18:49;0.93;;;0.88;;
43363;SDS011;40636;52.424;-1.948;2023-01-29T16:21:32;1.60;;;1.05;;
43363;SDS011;40636;52.424;-1.948;2023-01-29T16:24:12;1.67;;;1.13;;
43363;SDS011;40636;52.424;-1.948;2023-01-29T16:26:48;2.30;;;1.00;;
43363;SDS011;40636;52.424;-1.948;2023-01-29T16:29:20;1.13;;;0.88;;
43363;SDS011;40636;52.424;-1.948;2023-01-29T16:31:50;1.10;;;0.90;;
43363;SDS011;40636;52.424;-1.948;2023-01-29T16:34:36;2.40;;;1.02;;
43363;SDS011;40636;52.424;-1.948;2023-01-29T16:37:06;1.60;;;1.35;;
43363;SDS011;40636;52.424;-1.948;2023-01-29T16:39:44;1.52;;;1.13;;
43363;SDS011;40636;52.424;-1.948;2023-01-29T16:44:49;1.80;;;1.25;;
43363;SDS011;40636;52.424;-1.948;2023-01-29T16:47:25;1.70;;;1.20;;
43363;SDS011;40636;52.424;-1.948;2023-01-29T16:53:12;0.93;;;0.80;;
43363;SDS011;40636;52.424;-1.948;2023-01-29T16:55:45;3.22;;;0.80;;
43363;SDS011;40636;52.424;-1.948;2023-01-29T16:58:15;0.80;;;0.80;;
43363;SDS011;40636;52.424;-1.948;2023-01-29T17:00:48;4.32;;;1.40;;
43363;SDS011;40636;52.424;-1.948;2023-01-29T17:03:19;2.95;;;1.40;;
43363;SDS011;40636;52.424;-1.948;2023-01-29T17:05:47;1.52;;;1.30;;
43363;SDS011;40636;52.424;-1.948;2023-01-29T17:08:20;2.10;;;1.40;;
43363;SDS011;40636;52.424;-1.948;2023-01-29T17:10:51;3.58;;;1.33;;
43363;SDS011;40636;52.424;-1.948;2023-01-29T17:13:37;3.92;;;1.38;;
43363;SDS011;40636;52.424;-1.948;2023-01-29T17:16:19;1.42;;;1.33;;
43363;SDS011;40636;52.424;-1.948;2023-01-29T17:18:49;1.90;;;1.23;;
43363;SDS011;40636;52.424;-1.948;2023-01-29T17:21:16;3.47;;;1.20;;
43363;SDS011;40636;52.424;-1.948;2023-01-29T17:23:43;1.40;;;1.30;;
43363;SDS011;40636;52.424;-1.948;2023-01-29T17:26:11;4.38;;;2.60;;
43363;SDS011;40636;52.424;-1.948;2023-01-29T17:28:39;1.38;;;1.00;;
43363;SDS011;40636;52.424;-1.948;2023-01-29T17:31:07;1.88;;;1.52;;
43363;SDS011;40636;52.424;-1.948;2023-01-29T17:33:35;2.03;;;1.00;;
43363;SDS011;40636;52.424;-1.948;2023-01-29T17:36:13;1.55;;;1.20;;
43363;SDS011;40636;52.424;-1.948;2023-01-29T17:38:42;1.27;;;1.02;;
43363;SDS011;40636;52.424;-1.948;2023-01-29T17:41:24;3.28;;;1.20;;
43363;SDS011;40636;52.424;-1.948;2023-01-29T17:43:53;1.45;;;0.90;;